Portada
METAR-TAF:

METAR-TAF

Aeroports :

Munda, New Georgia, Illes Salomó

latitud: 8-19-41S, longitud: 157-15-47E, altitud: 3 m

Observació

L'informe es va fer fa 11 hores i 42 minuts, a les 05:00 UTC
Vent 5 kt del Sud
Temperatura 32°C
Humitat 71%
Pressió 1005 hPa
Visibilitat 10 km o més
Núvols disperses a una alçada de 1900 ft
Escasses núvols a una alçada de 2000 ft, Cumulonimbus.
Núvols disperses a una alçada de 30000 ft
calitja

METAR: AGGM 120500Z 18005KT 9999 HZ SCT019 FEW020CB SCT300 32/26 Q1005

Hora: 03:42 (16:42 UTC)

Pronòstic

L'informe es va fer fa 5 hores i 27 minuts, a les 11:15 UTC
Pronòstic vàlid del 12 a les 12 UTC al 13 a les 12 UTC
Vent 3 kt amb direcció variable
Visibilitat: 1007 m
Núvols disperses a una alçada de 1600 ft

TAF: AGGM 121115Z 1212/1312 VRB03KT 9999 SCT016 Q 1008 1006 1005 1007

Observacions i pronòstics meteorològics de més de 4000 aeroports (METAR i TAF).

Les estacions disponibles són els punts grocs i vermells al mapa.

Posi el ratolí al punt desitjat per veure el nom de l'estació.

Feu clic per veure les observacions i els pronòstics meteorològics.

Per canviar el mapa: feu clic els botons verds amb una creu de color negre per apropar; al botó verd amb un guió per allunyar la imatge; o en les fletxes verdes per a mapes adjacents.


METAR-TAF: